SAS36P EDDF-EGCC
Flight info
| Callsign | SAS36P |
|---|---|
| Flight time | 1h 19m |
| Altitude | 32000 |
| Route | OBOKA2E/07C OBOKA Z29 TORNU DCT GALSO Q63 ERING L179 LAM UN57 WELIN T420 ELVOS ELVOS1M |
| Aircraft | A320/M-SDE3FGHIRWY/LB1 |
Departure
| Time | 2026-04-15 10:10 |
|---|---|
| Airport | Frankfurt Main Airport (EDDF) |
Arrival
| Time | 2026-04-15 11:29 |
|---|---|
| Airport | Manchester Airport (EGCC) |
| Time | Latitude | Longitude | Altitude | Speed | Heading |
|---|---|---|---|---|---|
| 2026-04-15 09:51 | 50.03704 | 8.54137 | 352 ft | 0 kts | 160° |
| 2026-04-15 10:06 | 50.03703 | 8.54137 | 345 ft | 1 kts | 160° |
| 2026-04-15 10:06 | 50.03691 | 8.54144 | 355 ft | 3 kts | 160° |
| 2026-04-15 10:07 | 50.03665 | 8.54159 | 348 ft | 5 kts | 160° |
| 2026-04-15 10:07 | 50.03642 | 8.54198 | 345 ft | 5 kts | 102° |
| 2026-04-15 10:07 | 50.03631 | 8.54264 | 348 ft | 8 kts | 116° |
| 2026-04-15 10:07 | 50.03583 | 8.54323 | 352 ft | 9 kts | 155° |
| 2026-04-15 10:08 | 50.03517 | 8.54363 | 350 ft | 11 kts | 158° |
| 2026-04-15 10:08 | 50.03495 | 8.54424 | 345 ft | 0 kts | 75° |
| 2026-04-15 10:08 | 50.03495 | 8.54426 | 345 ft | 1 kts | 75° |
| 2026-04-15 10:08 | 50.03499 | 8.54448 | 353 ft | 4 kts | 73° |
| 2026-04-15 10:09 | 50.03573 | 8.54761 | 348 ft | 66 kts | 70° |
| 2026-04-15 10:09 | 50.03804 | 8.55730 | 349 ft | 123 kts | 69° |
| 2026-04-15 10:09 | 50.04159 | 8.57198 | 371 ft | 163 kts | 69° |
| 2026-04-15 10:09 | 50.04596 | 8.58866 | 943 ft | 162 kts | 67° |
| 2026-04-15 10:10 | 50.05015 | 8.60476 | 1567 ft | 161 kts | 70° |
| 2026-04-15 10:10 | 50.05488 | 8.62154 | 1851 ft | 181 kts | 54° |
| 2026-04-15 10:10 | 50.06536 | 8.63408 | 2108 ft | 205 kts | 20° |
| 2026-04-15 10:10 | 50.08031 | 8.63580 | 2402 ft | 229 kts | 359° |
| 2026-04-15 10:11 | 50.09706 | 8.63471 | 2861 ft | 251 kts | 358° |
| 2026-04-15 10:11 | 50.11487 | 8.63346 | 3647 ft | 259 kts | 359° |
| 2026-04-15 10:11 | 50.13302 | 8.63111 | 4514 ft | 265 kts | 348° |
| 2026-04-15 10:11 | 50.14981 | 8.61894 | 5351 ft | 271 kts | 321° |
| 2026-04-15 10:12 | 50.16160 | 8.59643 | 6152 ft | 276 kts | 296° |
| 2026-04-15 10:12 | 50.17026 | 8.56968 | 7048 ft | 276 kts | 295° |
| 2026-04-15 10:12 | 50.17882 | 8.54274 | 7890 ft | 278 kts | 295° |
| 2026-04-15 10:12 | 50.18747 | 8.51554 | 8708 ft | 282 kts | 295° |
| 2026-04-15 10:13 | 50.19628 | 8.48796 | 9517 ft | 285 kts | 296° |
| 2026-04-15 10:13 | 50.20521 | 8.46004 | 10298 ft | 289 kts | 296° |
| 2026-04-15 10:13 | 50.21438 | 8.43143 | 10738 ft | 305 kts | 296° |
| 2026-04-15 10:13 | 50.22425 | 8.40075 | 10909 ft | 327 kts | 296° |
| 2026-04-15 10:14 | 50.23468 | 8.36835 | 11358 ft | 338 kts | 296° |
| 2026-04-15 10:14 | 50.24526 | 8.33537 | 12020 ft | 341 kts | 296° |
| 2026-04-15 10:14 | 50.25592 | 8.30209 | 12731 ft | 344 kts | 296° |
| 2026-04-15 10:14 | 50.26662 | 8.26857 | 13455 ft | 346 kts | 295° |
| 2026-04-15 10:15 | 50.27374 | 8.24625 | 13915 ft | 347 kts | 295° |
| 2026-04-15 10:15 | 50.28823 | 8.20080 | 14754 ft | 351 kts | 296° |
| 2026-04-15 10:15 | 50.29546 | 8.17808 | 15139 ft | 353 kts | 296° |
| 2026-04-15 10:15 | 50.31001 | 8.13231 | 15895 ft | 357 kts | 296° |
| 2026-04-15 10:16 | 50.31750 | 8.10868 | 16271 ft | 359 kts | 296° |
| 2026-04-15 10:16 | 50.32861 | 8.07350 | 16840 ft | 363 kts | 296° |
| 2026-04-15 10:16 | 50.33982 | 8.03791 | 17421 ft | 366 kts | 296° |
| 2026-04-15 10:16 | 50.35112 | 8.00203 | 18002 ft | 369 kts | 296° |
| 2026-04-15 10:17 | 50.36254 | 7.96587 | 18565 ft | 373 kts | 296° |
| 2026-04-15 10:17 | 50.37407 | 7.92934 | 19072 ft | 376 kts | 296° |
| 2026-04-15 10:17 | 50.38570 | 7.89244 | 19608 ft | 379 kts | 296° |
| 2026-04-15 10:17 | 50.39740 | 7.85526 | 20166 ft | 382 kts | 296° |
| 2026-04-15 10:18 | 50.40916 | 7.81783 | 20727 ft | 384 kts | 296° |
| 2026-04-15 10:18 | 50.42098 | 7.78012 | 21262 ft | 386 kts | 296° |
| 2026-04-15 10:18 | 50.43286 | 7.74213 | 21784 ft | 389 kts | 296° |
| 2026-04-15 10:18 | 50.44480 | 7.70386 | 22281 ft | 392 kts | 296° |
| 2026-04-15 10:19 | 50.45681 | 7.66524 | 22769 ft | 395 kts | 296° |
| 2026-04-15 10:19 | 50.46891 | 7.62635 | 23262 ft | 398 kts | 296° |
| 2026-04-15 10:19 | 50.48092 | 7.58771 | 23735 ft | 401 kts | 296° |
| 2026-04-15 10:19 | 50.49318 | 7.54820 | 24143 ft | 403 kts | 296° |
| 2026-04-15 10:20 | 50.50551 | 7.50843 | 24550 ft | 405 kts | 296° |
| 2026-04-15 10:20 | 50.51785 | 7.46855 | 24963 ft | 407 kts | 296° |
| 2026-04-15 10:20 | 50.53023 | 7.42844 | 25359 ft | 408 kts | 296° |
| 2026-04-15 10:20 | 50.54263 | 7.38823 | 25752 ft | 410 kts | 296° |
| 2026-04-15 10:21 | 50.55509 | 7.34779 | 26136 ft | 412 kts | 296° |
| 2026-04-15 10:21 | 50.56758 | 7.30720 | 26516 ft | 413 kts | 296° |
| 2026-04-15 10:21 | 50.58007 | 7.26644 | 26878 ft | 415 kts | 296° |
| 2026-04-15 10:21 | 50.59262 | 7.22539 | 27245 ft | 416 kts | 296° |
| 2026-04-15 10:22 | 50.60518 | 7.18424 | 27625 ft | 418 kts | 296° |
| 2026-04-15 10:22 | 50.61781 | 7.14291 | 27991 ft | 420 kts | 297° |
| 2026-04-15 10:22 | 50.63048 | 7.10141 | 28359 ft | 421 kts | 297° |
| 2026-04-15 10:22 | 50.64317 | 7.05969 | 28720 ft | 423 kts | 296° |
| 2026-04-15 10:23 | 50.65586 | 7.01781 | 29076 ft | 425 kts | 296° |
| 2026-04-15 10:23 | 50.66861 | 6.97571 | 29415 ft | 426 kts | 296° |
| 2026-04-15 10:23 | 50.68140 | 6.93349 | 29853 ft | 426 kts | 296° |
| 2026-04-15 10:23 | 50.69411 | 6.89148 | 30376 ft | 423 kts | 296° |
| 2026-04-15 10:24 | 50.70671 | 6.84962 | 30822 ft | 421 kts | 296° |
| 2026-04-15 10:24 | 50.71921 | 6.80791 | 31262 ft | 419 kts | 296° |
| 2026-04-15 10:24 | 50.73164 | 6.76641 | 31701 ft | 417 kts | 296° |
| 2026-04-15 10:24 | 50.74404 | 6.72510 | 32111 ft | 416 kts | 296° |
| 2026-04-15 10:25 | 50.75645 | 6.68380 | 32228 ft | 415 kts | 296° |
| 2026-04-15 10:25 | 50.78111 | 6.60152 | 32247 ft | 414 kts | 296° |
| 2026-04-15 10:26 | 50.80559 | 6.51922 | 32218 ft | 414 kts | 296° |
| 2026-04-15 10:26 | 50.82991 | 6.43715 | 32217 ft | 415 kts | 296° |
| 2026-04-15 10:27 | 50.85433 | 6.35448 | 32217 ft | 415 kts | 296° |
| 2026-04-15 10:27 | 50.87867 | 6.27174 | 32220 ft | 415 kts | 295° |
| 2026-04-15 10:28 | 50.90308 | 6.18882 | 32227 ft | 415 kts | 296° |
| 2026-04-15 10:28 | 50.92737 | 6.10583 | 32223 ft | 415 kts | 295° |
| 2026-04-15 10:29 | 50.95157 | 6.02261 | 32225 ft | 415 kts | 295° |
| 2026-04-15 10:29 | 50.97575 | 5.93934 | 32227 ft | 416 kts | 295° |
| 2026-04-15 10:30 | 50.99991 | 5.85601 | 32226 ft | 416 kts | 295° |
| 2026-04-15 10:30 | 51.02398 | 5.77255 | 32223 ft | 416 kts | 295° |
| 2026-04-15 10:31 | 51.04784 | 5.68953 | 32226 ft | 416 kts | 295° |
| 2026-04-15 10:31 | 51.07180 | 5.60593 | 32203 ft | 416 kts | 294° |
| 2026-04-15 10:32 | 51.09570 | 5.52212 | 32200 ft | 416 kts | 294° |
| 2026-04-15 10:32 | 51.11956 | 5.43818 | 32201 ft | 416 kts | 294° |
| 2026-04-15 10:33 | 51.14335 | 5.35417 | 32203 ft | 416 kts | 294° |
| 2026-04-15 10:33 | 51.16724 | 5.27005 | 32202 ft | 417 kts | 294° |
| 2026-04-15 10:34 | 51.19104 | 5.18578 | 32194 ft | 417 kts | 293° |
| 2026-04-15 10:34 | 51.21465 | 5.10141 | 32191 ft | 417 kts | 293° |
| 2026-04-15 10:35 | 51.23818 | 5.01679 | 32200 ft | 417 kts | 293° |
| 2026-04-15 10:35 | 51.26159 | 4.93271 | 32200 ft | 417 kts | 293° |
| 2026-04-15 10:36 | 51.28506 | 4.84809 | 32199 ft | 417 kts | 293° |
| 2026-04-15 10:36 | 51.30845 | 4.76338 | 32209 ft | 417 kts | 292° |
| 2026-04-15 10:37 | 51.33179 | 4.67857 | 32189 ft | 417 kts | 291° |
| 2026-04-15 10:37 | 51.35515 | 4.59361 | 32176 ft | 417 kts | 291° |
| 2026-04-15 10:38 | 51.37844 | 4.50861 | 32171 ft | 417 kts | 291° |
| 2026-04-15 10:38 | 51.40166 | 4.42345 | 32167 ft | 417 kts | 291° |
| 2026-04-15 10:39 | 51.42477 | 4.33818 | 32167 ft | 418 kts | 291° |
| 2026-04-15 10:39 | 51.44788 | 4.25276 | 32172 ft | 418 kts | 291° |
| 2026-04-15 10:40 | 51.47092 | 4.16721 | 32173 ft | 418 kts | 291° |
| 2026-04-15 10:40 | 51.49389 | 4.08164 | 32174 ft | 418 kts | 291° |
| 2026-04-15 10:41 | 51.51676 | 3.99594 | 32189 ft | 418 kts | 291° |
| 2026-04-15 10:41 | 51.53961 | 3.91022 | 32184 ft | 417 kts | 291° |
| 2026-04-15 10:42 | 51.56240 | 3.82441 | 32181 ft | 418 kts | 290° |
| 2026-04-15 10:42 | 51.58515 | 3.73844 | 32168 ft | 418 kts | 290° |
| 2026-04-15 10:43 | 51.60788 | 3.65231 | 32158 ft | 419 kts | 290° |
| 2026-04-15 10:43 | 51.63052 | 3.56599 | 32157 ft | 419 kts | 290° |
| 2026-04-15 10:44 | 51.65308 | 3.47953 | 32157 ft | 419 kts | 290° |
| 2026-04-15 10:44 | 51.67563 | 3.39304 | 32151 ft | 419 kts | 290° |
| 2026-04-15 10:45 | 51.69799 | 3.30701 | 32162 ft | 419 kts | 289° |
| 2026-04-15 10:45 | 51.71988 | 3.21991 | 32154 ft | 418 kts | 284° |
| 2026-04-15 10:46 | 51.72799 | 3.12841 | 32141 ft | 411 kts | 266° |
| 2026-04-15 10:46 | 51.72120 | 3.03732 | 32139 ft | 409 kts | 260° |
| 2026-04-15 10:47 | 51.71329 | 2.94645 | 32132 ft | 409 kts | 260° |
| 2026-04-15 10:47 | 51.70536 | 2.85555 | 32142 ft | 409 kts | 259° |
| 2026-04-15 10:48 | 51.69736 | 2.76471 | 32152 ft | 409 kts | 259° |
| 2026-04-15 10:48 | 51.68918 | 2.67393 | 32145 ft | 409 kts | 259° |
| 2026-04-15 10:49 | 51.68106 | 2.58308 | 32141 ft | 409 kts | 259° |
| 2026-04-15 10:49 | 51.67294 | 2.49225 | 32133 ft | 409 kts | 259° |
| 2026-04-15 10:50 | 51.66468 | 2.40158 | 32164 ft | 409 kts | 258° |
| 2026-04-15 10:50 | 51.65631 | 2.31115 | 32145 ft | 408 kts | 258° |
| 2026-04-15 10:51 | 51.64792 | 2.22092 | 32141 ft | 407 kts | 258° |
| 2026-04-15 10:51 | 51.63946 | 2.13091 | 32137 ft | 406 kts | 258° |
| 2026-04-15 10:52 | 51.63100 | 2.04111 | 32130 ft | 406 kts | 258° |
| 2026-04-15 10:52 | 51.62277 | 1.95178 | 32126 ft | 406 kts | 258° |
| 2026-04-15 10:53 | 51.61443 | 1.86196 | 32141 ft | 405 kts | 257° |
| 2026-04-15 10:53 | 51.60602 | 1.77253 | 32136 ft | 404 kts | 257° |
| 2026-04-15 10:54 | 51.59748 | 1.68321 | 32133 ft | 403 kts | 257° |
| 2026-04-15 10:54 | 51.59162 | 1.59337 | 32125 ft | 409 kts | 267° |
| 2026-04-15 10:55 | 51.59556 | 1.50185 | 32113 ft | 410 kts | 269° |
| 2026-04-15 10:55 | 51.59950 | 1.41033 | 32142 ft | 410 kts | 268° |
| 2026-04-15 10:56 | 51.60329 | 1.31881 | 32118 ft | 410 kts | 268° |
| 2026-04-15 10:56 | 51.60709 | 1.22731 | 32110 ft | 410 kts | 268° |
| 2026-04-15 10:57 | 51.61080 | 1.13580 | 32097 ft | 410 kts | 268° |
| 2026-04-15 10:57 | 51.61616 | 0.99910 | 32094 ft | 410 kts | 268° |
| 2026-04-15 10:58 | 51.61969 | 0.90755 | 32097 ft | 409 kts | 266° |
| 2026-04-15 10:58 | 51.62312 | 0.81615 | 32093 ft | 409 kts | 266° |
| 2026-04-15 10:59 | 51.62653 | 0.72471 | 32092 ft | 409 kts | 266° |
| 2026-04-15 10:59 | 51.62982 | 0.63321 | 32094 ft | 410 kts | 266° |
| 2026-04-15 11:00 | 51.63304 | 0.54172 | 32092 ft | 410 kts | 266° |
| 2026-04-15 11:00 | 51.63623 | 0.45013 | 32085 ft | 409 kts | 265° |
| 2026-04-15 11:01 | 51.63940 | 0.35888 | 32075 ft | 408 kts | 265° |
| 2026-04-15 11:01 | 51.64238 | 0.26775 | 32070 ft | 408 kts | 265° |
| 2026-04-15 11:02 | 51.65130 | 0.17655 | 32055 ft | 424 kts | 281° |
| 2026-04-15 11:02 | 51.66376 | 0.13291 | 32049 ft | 436 kts | 292° |
| 2026-04-15 11:02 | 51.68154 | 0.09346 | 32052 ft | 448 kts | 304° |
| 2026-04-15 11:03 | 51.72560 | 0.02130 | 32048 ft | 452 kts | 307° |
| 2026-04-15 11:03 | 51.76973 | -0.05109 | 32017 ft | 453 kts | 306° |
| 2026-04-15 11:04 | 51.81372 | -0.12392 | 32012 ft | 453 kts | 306° |
| 2026-04-15 11:04 | 51.85768 | -0.19701 | 32038 ft | 453 kts | 306° |
| 2026-04-15 11:05 | 51.90167 | -0.27020 | 32029 ft | 454 kts | 306° |
| 2026-04-15 11:05 | 51.94569 | -0.34347 | 32027 ft | 454 kts | 306° |
| 2026-04-15 11:06 | 51.98970 | -0.41694 | 32030 ft | 454 kts | 306° |
| 2026-04-15 11:06 | 52.03365 | -0.49066 | 31999 ft | 454 kts | 306° |
| 2026-04-15 11:07 | 52.07012 | -0.55200 | 32007 ft | 454 kts | 306° |
| 2026-04-15 11:07 | 52.11396 | -0.62602 | 31993 ft | 455 kts | 306° |
| 2026-04-15 11:08 | 52.15789 | -0.70041 | 31974 ft | 457 kts | 306° |
| 2026-04-15 11:08 | 52.20193 | -0.77507 | 31456 ft | 456 kts | 306° |
| 2026-04-15 11:09 | 52.22398 | -0.81253 | 30705 ft | 458 kts | 306° |
| 2026-04-15 11:09 | 52.24711 | -0.84856 | 30061 ft | 464 kts | 314° |
| 2026-04-15 11:09 | 52.27389 | -0.87878 | 29338 ft | 471 kts | 322° |
| 2026-04-15 11:09 | 52.30190 | -0.90644 | 28621 ft | 470 kts | 322° |
| 2026-04-15 11:10 | 52.32980 | -0.93411 | 27922 ft | 468 kts | 322° |
| 2026-04-15 11:10 | 52.35751 | -0.96176 | 27240 ft | 466 kts | 322° |
| 2026-04-15 11:10 | 52.38512 | -0.98938 | 26572 ft | 464 kts | 322° |
| 2026-04-15 11:10 | 52.41263 | -1.01693 | 25964 ft | 463 kts | 322° |
| 2026-04-15 11:11 | 52.43966 | -1.04405 | 25306 ft | 461 kts | 322° |
| 2026-04-15 11:11 | 52.46692 | -1.07145 | 24673 ft | 459 kts | 322° |
| 2026-04-15 11:11 | 52.49411 | -1.09876 | 24048 ft | 457 kts | 323° |
| 2026-04-15 11:11 | 52.52121 | -1.12601 | 23433 ft | 455 kts | 323° |
| 2026-04-15 11:12 | 52.54813 | -1.15308 | 22704 ft | 453 kts | 323° |
| 2026-04-15 11:12 | 52.57494 | -1.18010 | 22005 ft | 451 kts | 323° |
| 2026-04-15 11:12 | 52.60166 | -1.20703 | 21302 ft | 449 kts | 323° |
| 2026-04-15 11:12 | 52.62822 | -1.23380 | 20648 ft | 446 kts | 323° |
| 2026-04-15 11:13 | 52.65461 | -1.26047 | 20088 ft | 442 kts | 323° |
| 2026-04-15 11:13 | 52.68047 | -1.28662 | 19830 ft | 431 kts | 323° |
| 2026-04-15 11:13 | 52.70599 | -1.31253 | 19248 ft | 431 kts | 323° |
| 2026-04-15 11:13 | 52.73147 | -1.33847 | 18658 ft | 431 kts | 323° |
| 2026-04-15 11:14 | 52.75698 | -1.36448 | 18128 ft | 430 kts | 323° |
| 2026-04-15 11:14 | 52.78239 | -1.39045 | 17457 ft | 429 kts | 323° |
| 2026-04-15 11:14 | 52.80742 | -1.41611 | 16815 ft | 428 kts | 323° |
| 2026-04-15 11:14 | 52.83270 | -1.44204 | 16176 ft | 427 kts | 323° |
| 2026-04-15 11:15 | 52.85787 | -1.46786 | 15542 ft | 425 kts | 323° |
| 2026-04-15 11:15 | 52.88294 | -1.49356 | 14920 ft | 423 kts | 324° |
| 2026-04-15 11:15 | 52.90788 | -1.51911 | 14349 ft | 420 kts | 323° |
| 2026-04-15 11:15 | 52.93263 | -1.54454 | 13745 ft | 417 kts | 324° |
| 2026-04-15 11:16 | 52.95721 | -1.56979 | 13075 ft | 414 kts | 324° |
| 2026-04-15 11:16 | 52.98160 | -1.59487 | 12417 ft | 410 kts | 324° |
| 2026-04-15 11:16 | 53.00571 | -1.61980 | 11782 ft | 406 kts | 324° |
| 2026-04-15 11:16 | 53.02956 | -1.64454 | 11145 ft | 403 kts | 324° |
| 2026-04-15 11:17 | 53.05242 | -1.67077 | 10520 ft | 395 kts | 315° |
| 2026-04-15 11:17 | 53.07122 | -1.70303 | 9915 ft | 385 kts | 305° |
| 2026-04-15 11:17 | 53.08856 | -1.73673 | 9250 ft | 381 kts | 305° |
| 2026-04-15 11:17 | 53.10571 | -1.77000 | 8592 ft | 377 kts | 305° |
| 2026-04-15 11:18 | 53.12276 | -1.80285 | 8062 ft | 371 kts | 306° |
| 2026-04-15 11:18 | 53.13992 | -1.83376 | 7904 ft | 359 kts | 314° |
| 2026-04-15 11:18 | 53.16126 | -1.85421 | 7914 ft | 351 kts | 338° |
| 2026-04-15 11:18 | 53.18450 | -1.86388 | 7917 ft | 337 kts | 345° |
| 2026-04-15 11:19 | 53.20713 | -1.87159 | 7698 ft | 330 kts | 345° |
| 2026-04-15 11:19 | 53.22954 | -1.87895 | 7392 ft | 326 kts | 345° |
| 2026-04-15 11:19 | 53.25143 | -1.88607 | 7028 ft | 325 kts | 345° |
| 2026-04-15 11:19 | 53.27396 | -1.89341 | 6599 ft | 326 kts | 345° |
| 2026-04-15 11:20 | 53.29592 | -1.90063 | 6171 ft | 326 kts | 346° |
| 2026-04-15 11:20 | 53.31815 | -1.90800 | 5737 ft | 326 kts | 345° |
| 2026-04-15 11:20 | 53.34039 | -1.91528 | 5300 ft | 326 kts | 345° |
| 2026-04-15 11:20 | 53.36268 | -1.92235 | 5016 ft | 323 kts | 345° |
| 2026-04-15 11:21 | 53.38451 | -1.92626 | 4947 ft | 310 kts | 358° |
| 2026-04-15 11:21 | 53.40578 | -1.92537 | 4661 ft | 301 kts | 0° |
| 2026-04-15 11:21 | 53.42629 | -1.92388 | 4370 ft | 288 kts | 0° |
| 2026-04-15 11:21 | 53.44603 | -1.92230 | 4027 ft | 280 kts | 0° |
| 2026-04-15 11:22 | 53.46535 | -1.92060 | 3645 ft | 276 kts | 1° |
| 2026-04-15 11:22 | 53.48417 | -1.91917 | 3491 ft | 270 kts | 0° |
| 2026-04-15 11:22 | 53.50283 | -1.92035 | 3481 ft | 261 kts | 340° |
| 2026-04-15 11:22 | 53.51735 | -1.93351 | 3475 ft | 219 kts | 300° |
| 2026-04-15 11:23 | 53.52220 | -1.95463 | 3523 ft | 180 kts | 255° |
| 2026-04-15 11:23 | 53.51683 | -1.97077 | 3484 ft | 150 kts | 204° |
| 2026-04-15 11:23 | 53.50674 | -1.97573 | 3489 ft | 154 kts | 198° |
| 2026-04-15 11:23 | 53.49734 | -1.98431 | 3488 ft | 156 kts | 213° |
| 2026-04-15 11:24 | 53.48921 | -1.99636 | 3487 ft | 157 kts | 221° |
| 2026-04-15 11:24 | 53.48175 | -2.00981 | 3489 ft | 158 kts | 223° |
| 2026-04-15 11:24 | 53.47454 | -2.02402 | 3499 ft | 160 kts | 225° |
| 2026-04-15 11:24 | 53.46747 | -2.03847 | 3460 ft | 160 kts | 225° |
| 2026-04-15 11:25 | 53.46048 | -2.05294 | 3329 ft | 158 kts | 225° |
| 2026-04-15 11:25 | 53.45358 | -2.06730 | 3161 ft | 159 kts | 224° |
| 2026-04-15 11:25 | 53.44664 | -2.08177 | 2959 ft | 159 kts | 224° |
| 2026-04-15 11:25 | 53.43971 | -2.09623 | 2748 ft | 159 kts | 224° |
| 2026-04-15 11:26 | 53.43270 | -2.11081 | 2544 ft | 162 kts | 224° |
| 2026-04-15 11:26 | 53.42557 | -2.12568 | 2330 ft | 164 kts | 224° |
| 2026-04-15 11:26 | 53.41846 | -2.14050 | 2107 ft | 164 kts | 225° |
| 2026-04-15 11:26 | 53.41132 | -2.15537 | 1886 ft | 164 kts | 224° |
| 2026-04-15 11:27 | 53.40422 | -2.17016 | 1662 ft | 159 kts | 225° |
| 2026-04-15 11:27 | 53.39773 | -2.18374 | 1479 ft | 139 kts | 225° |
| 2026-04-15 11:27 | 53.39206 | -2.19554 | 1290 ft | 126 kts | 221° |
| 2026-04-15 11:27 | 53.38662 | -2.20681 | 1119 ft | 123 kts | 223° |
| 2026-04-15 11:28 | 53.38127 | -2.21786 | 912 ft | 130 kts | 230° |
| 2026-04-15 11:28 | 53.37545 | -2.22993 | 750 ft | 134 kts | 227° |
| 2026-04-15 11:28 | 53.36957 | -2.24214 | 586 ft | 132 kts | 227° |
| 2026-04-15 11:28 | 53.36383 | -2.25404 | 394 ft | 131 kts | 226° |
| 2026-04-15 11:29 | 53.35811 | -2.26590 | 254 ft | 127 kts | 230° |
| 2026-04-15 11:29 | 53.35371 | -2.27495 | 237 ft | 62 kts | 232° |
| 2026-04-15 11:29 | 53.35185 | -2.27879 | 232 ft | 29 kts | 230° |
| 2026-04-15 11:29 | 53.35117 | -2.28026 | 230 ft | 7 kts | 231° |
| 2026-04-15 11:30 | 53.35101 | -2.28144 | 233 ft | 12 kts | 300° |
| 2026-04-15 11:30 | 53.35179 | -2.28196 | 232 ft | 13 kts | 359° |
| 2026-04-15 11:30 | 53.35270 | -2.28184 | 233 ft | 13 kts | 5° |
| 2026-04-15 11:30 | 53.35356 | -2.28171 | 233 ft | 12 kts | 5° |
| 2026-04-15 11:31 | 53.35440 | -2.28152 | 234 ft | 12 kts | 11° |
| 2026-04-15 11:31 | 53.35523 | -2.28091 | 233 ft | 13 kts | 35° |
| 2026-04-15 11:31 | 53.35567 | -2.28019 | 233 ft | 5 kts | 49° |
| 2026-04-15 11:31 | 53.35568 | -2.28018 | 233 ft | 0 kts | 49° |
| 2026-04-15 11:34 | 53.35568 | -2.28017 | 233 ft | 0 kts | 49° |
| 2026-04-15 11:34 | 53.35575 | -2.28002 | 233 ft | 3 kts | 49° |
| 2026-04-15 11:35 | 53.35595 | -2.27965 | 233 ft | 5 kts | 49° |
| 2026-04-15 11:35 | 53.35625 | -2.27911 | 233 ft | 8 kts | 32° |
| 2026-04-15 11:35 | 53.35683 | -2.27885 | 233 ft | 10 kts | 11° |
| 2026-04-15 11:35 | 53.35749 | -2.27872 | 233 ft | 9 kts | 6° |
| 2026-04-15 11:36 | 53.35819 | -2.27863 | 233 ft | 11 kts | 4° |
| 2026-04-15 11:36 | 53.35899 | -2.27850 | 233 ft | 11 kts | 5° |
| 2026-04-15 11:36 | 53.35973 | -2.27866 | 233 ft | 12 kts | 344° |
| 2026-04-15 11:36 | 53.36026 | -2.27950 | 233 ft | 12 kts | 308° |
| 2026-04-15 11:37 | 53.36085 | -2.28057 | 233 ft | 13 kts | 313° |
| 2026-04-15 11:37 | 53.36153 | -2.28174 | 233 ft | 15 kts | 314° |
| 2026-04-15 11:37 | 53.36218 | -2.28288 | 233 ft | 12 kts | 314° |
| 2026-04-15 11:37 | 53.36278 | -2.28390 | 233 ft | 10 kts | 315° |
| 2026-04-15 11:38 | 53.36327 | -2.28458 | 233 ft | 10 kts | 317° |
| 2026-04-15 11:38 | 53.36353 | -2.28490 | 234 ft | 4 kts | 347° |
| 2026-04-15 11:38 | 53.36394 | -2.28493 | 233 ft | 8 kts | 360° |
| 2026-04-15 11:38 | 53.36448 | -2.28526 | 233 ft | 9 kts | 322° |
| 2026-04-15 11:39 | 53.36500 | -2.28610 | 233 ft | 12 kts | 315° |
| 2026-04-15 11:39 | 53.36554 | -2.28707 | 233 ft | 11 kts | 313° |
| 2026-04-15 11:39 | 53.36614 | -2.28771 | 233 ft | 9 kts | 358° |
| 2026-04-15 11:39 | 53.36652 | -2.28735 | 234 ft | 0 kts | 52° |
| 2026-04-15 11:40 | 53.36654 | -2.28699 | 233 ft | 5 kts | 100° |
| 2026-04-15 11:40 | 53.36647 | -2.28676 | 235 ft | 2 kts | 123° |
| 2026-04-15 11:40 | 53.36635 | -2.28651 | 233 ft | 2 kts | 130° |
| 2026-04-15 11:40 | 53.36623 | -2.28629 | 233 ft | 2 kts | 133° |
| 2026-04-15 11:41 | 53.36617 | -2.28619 | 233 ft | 0 kts | 134° |
| 2026-04-15 11:41 | 53.36612 | -2.28610 | 233 ft | 0 kts | 134° |